sensor_id;sensor_type;location;lat;lon;timestamp;pressure;altitude;pressure_sealevel;temperature;humidity
72336;BME280;65062;48.446;8.834;2022-11-15T00:01:57;97318.31;;;3.32;93.10
72336;BME280;65062;48.446;8.834;2022-11-15T00:04:58;97321.78;;;3.23;92.61
72336;BME280;65062;48.446;8.834;2022-11-15T00:07:58;97311.47;;;3.13;92.71
72336;BME280;65062;48.446;8.834;2022-11-15T00:11:00;97315.56;;;3.16;92.68
72336;BME280;65062;48.446;8.834;2022-11-15T00:14:01;97313.63;;;3.18;92.59
72336;BME280;65062;48.446;8.834;2022-11-15T00:17:04;97315.94;;;2.94;92.21
72336;BME280;65062;48.446;8.834;2022-11-15T00:20:05;97311.69;;;2.93;92.43
72336;BME280;65062;48.446;8.834;2022-11-15T00:23:06;97313.91;;;2.88;92.72
72336;BME280;65062;48.446;8.834;2022-11-15T00:26:09;97316.38;;;2.80;91.65
72336;BME280;65062;48.446;8.834;2022-11-15T00:29:10;97309.94;;;2.57;91.88
72336;BME280;65062;48.446;8.834;2022-11-15T00:32:11;97310.19;;;2.63;92.83
72336;BME280;65062;48.446;8.834;2022-11-15T00:35:12;97310.41;;;2.79;92.95
72336;BME280;65062;48.446;8.834;2022-11-15T00:38:12;97309.88;;;2.76;92.70
72336;BME280;65062;48.446;8.834;2022-11-15T00:41:13;97308.59;;;2.89;93.03
72336;BME280;65062;48.446;8.834;2022-11-15T00:44:13;97304.34;;;2.98;93.12
72336;BME280;65062;48.446;8.834;2022-11-15T00:47:13;97302.88;;;2.95;92.41
72336;BME280;65062;48.446;8.834;2022-11-15T00:50:14;97304.41;;;2.88;92.23
72336;BME280;65062;48.446;8.834;2022-11-15T00:53:15;97309.03;;;2.85;92.72
72336;BME280;65062;48.446;8.834;2022-11-15T00:56:15;97307.34;;;2.93;93.15
72336;BME280;65062;48.446;8.834;2022-11-15T00:59:15;97301.22;;;2.94;93.28
72336;BME280;65062;48.446;8.834;2022-11-15T01:02:16;97289.38;;;3.01;93.13
72336;BME280;65062;48.446;8.834;2022-11-15T01:05:16;97293.91;;;3.17;93.46
72336;BME280;65062;48.446;8.834;2022-11-15T01:08:17;97289.84;;;3.14;93.48
72336;BME280;65062;48.446;8.834;2022-11-15T01:11:17;97281.38;;;3.22;93.41
72336;BME280;65062;48.446;8.834;2022-11-15T01:14:17;97275.94;;;3.15;93.42
72336;BME280;65062;48.446;8.834;2022-11-15T01:17:18;97273.66;;;3.12;93.23
72336;BME280;65062;48.446;8.834;2022-11-15T01:20:18;97266.47;;;3.06;93.54
72336;BME280;65062;48.446;8.834;2022-11-15T01:23:19;97271.06;;;3.12;93.80
72336;BME280;65062;48.446;8.834;2022-11-15T01:26:19;97271.34;;;3.09;93.34
72336;BME280;65062;48.446;8.834;2022-11-15T01:29:20;97266.47;;;3.06;93.21
72336;BME280;65062;48.446;8.834;2022-11-15T01:32:20;97267.88;;;3.01;92.83
72336;BME280;65062;48.446;8.834;2022-11-15T01:35:20;97272.31;;;2.81;92.06
72336;BME280;65062;48.446;8.834;2022-11-15T01:38:21;97270.34;;;2.66;92.42
72336;BME280;65062;48.446;8.834;2022-11-15T01:41:27;97267.78;;;2.56;92.29
72336;BME280;65062;48.446;8.834;2022-11-15T01:47:36;97261.03;;;2.46;92.59
72336;BME280;65062;48.446;8.834;2022-11-15T01:50:38;97260.66;;;2.41;92.79
72336;BME280;65062;48.446;8.834;2022-11-15T01:53:41;97255.75;;;2.38;92.97
72336;BME280;65062;48.446;8.834;2022-11-15T01:56:53;97253.28;;;2.46;92.97
72336;BME280;65062;48.446;8.834;2022-11-15T01:59:57;97252.34;;;2.47;93.50
72336;BME280;65062;48.446;8.834;2022-11-15T02:02:57;97242.97;;;2.73;93.96
72336;BME280;65062;48.446;8.834;2022-11-15T02:05:58;97236.28;;;2.80;93.54
72336;BME280;65062;48.446;8.834;2022-11-15T02:09:00;97239.69;;;2.80;93.43
72336;BME280;65062;48.446;8.834;2022-11-15T02:12:00;97238.78;;;2.72;93.05
72336;BME280;65062;48.446;8.834;2022-11-15T02:15:02;97240.31;;;2.65;93.31
72336;BME280;65062;48.446;8.834;2022-11-15T02:30:53;97213.88;;;2.71;92.72
72336;BME280;65062;48.446;8.834;2022-11-15T02:34:13;97216.19;;;2.74;92.57
72336;BME280;65062;48.446;8.834;2022-11-15T02:40:39;97211.28;;;2.98;93.37
72336;BME280;65062;48.446;8.834;2022-11-15T02:43:49;97212.63;;;3.02;93.14
72336;BME280;65062;48.446;8.834;2022-11-15T02:47:00;97204.97;;;3.10;92.91
72336;BME280;65062;48.446;8.834;2022-11-15T02:50:17;97187.22;;;3.15;92.58
72336;BME280;65062;48.446;8.834;2022-11-15T02:53:23;97184.97;;;3.12;92.96
72336;BME280;65062;48.446;8.834;2022-11-15T02:56:24;97180.44;;;3.14;93.06
72336;BME280;65062;48.446;8.834;2022-11-15T02:59:37;97187.91;;;3.17;93.13
72336;BME280;65062;48.446;8.834;2022-11-15T03:06:09;97188.88;;;3.33;93.63
72336;BME280;65062;48.446;8.834;2022-11-15T03:15:38;97181.47;;;3.38;92.84
72336;BME280;65062;48.446;8.834;2022-11-15T03:18:47;97179.94;;;3.45;93.24
72336;BME280;65062;48.446;8.834;2022-11-15T03:21:51;97174.47;;;3.48;93.13
72336;BME280;65062;48.446;8.834;2022-11-15T03:24:54;97165.34;;;3.62;92.87
72336;BME280;65062;48.446;8.834;2022-11-15T03:27:58;97153.88;;;3.64;93.01
72336;BME280;65062;48.446;8.834;2022-11-15T03:31:02;97157.72;;;3.60;92.61
72336;BME280;65062;48.446;8.834;2022-11-15T03:34:35;97158.75;;;3.67;92.09
72336;BME280;65062;48.446;8.834;2022-11-15T03:37:45;97157.50;;;3.71;91.75
72336;BME280;65062;48.446;8.834;2022-11-15T03:40:58;97155.19;;;3.68;91.56
72336;BME280;65062;48.446;8.834;2022-11-15T03:47:20;97149.56;;;3.73;91.96
72336;BME280;65062;48.446;8.834;2022-11-15T03:50:24;97143.94;;;3.77;92.43
72336;BME280;65062;48.446;8.834;2022-11-15T03:53:25;97143.50;;;3.82;92.37
72336;BME280;65062;48.446;8.834;2022-11-15T03:56:25;97146.19;;;3.98;92.07
72336;BME280;65062;48.446;8.834;2022-11-15T03:59:26;97145.78;;;3.85;91.30
72336;BME280;65062;48.446;8.834;2022-11-15T04:02:26;97134.44;;;3.86;91.24
72336;BME280;65062;48.446;8.834;2022-11-15T04:05:27;97139.56;;;4.03;91.38
72336;BME280;65062;48.446;8.834;2022-11-15T04:08:27;97135.75;;;3.90;90.46
72336;BME280;65062;48.446;8.834;2022-11-15T04:11:27;97135.97;;;3.96;91.16
72336;BME280;65062;48.446;8.834;2022-11-15T04:14:28;97134.84;;;3.99;91.32
72336;BME280;65062;48.446;8.834;2022-11-15T04:17:28;97132.94;;;4.01;91.58
72336;BME280;65062;48.446;8.834;2022-11-15T04:20:30;97144.91;;;4.02;92.07
72336;BME280;65062;48.446;8.834;2022-11-15T04:23:49;97135.22;;;4.04;92.22
72336;BME280;65062;48.446;8.834;2022-11-15T04:27:08;97138.28;;;4.07;92.31
72336;BME280;65062;48.446;8.834;2022-11-15T04:30:08;97132.66;;;4.12;91.41
72336;BME280;65062;48.446;8.834;2022-11-15T04:33:09;97126.47;;;4.05;91.33
72336;BME280;65062;48.446;8.834;2022-11-15T04:36:10;97124.25;;;4.10;91.36
72336;BME280;65062;48.446;8.834;2022-11-15T04:39:29;97123.94;;;4.13;91.17
72336;BME280;65062;48.446;8.834;2022-11-15T04:42:29;97122.59;;;4.09;92.09
72336;BME280;65062;48.446;8.834;2022-11-15T04:45:30;97121.81;;;4.08;91.05
72336;BME280;65062;48.446;8.834;2022-11-15T04:48:30;97125.19;;;4.09;91.33
72336;BME280;65062;48.446;8.834;2022-11-15T04:51:30;97125.19;;;4.09;90.98
72336;BME280;65062;48.446;8.834;2022-11-15T04:54:31;97122.13;;;4.13;92.45
72336;BME280;65062;48.446;8.834;2022-11-15T04:57:31;97115.72;;;4.17;91.53
72336;BME280;65062;48.446;8.834;2022-11-15T05:00:32;97112.28;;;4.17;91.13
72336;BME280;65062;48.446;8.834;2022-11-15T05:03:32;97104.31;;;4.10;91.64
72336;BME280;65062;48.446;8.834;2022-11-15T05:06:51;97107.06;;;4.09;91.73
72336;BME280;65062;48.446;8.834;2022-11-15T05:09:51;97101.28;;;4.15;91.56
72336;BME280;65062;48.446;8.834;2022-11-15T05:12:52;97103.53;;;4.10;92.34
72336;BME280;65062;48.446;8.834;2022-11-15T05:15:52;97097.69;;;4.08;91.81
72336;BME280;65062;48.446;8.834;2022-11-15T05:18:53;97097.22;;;4.12;92.22
72336;BME280;65062;48.446;8.834;2022-11-15T05:21:54;97089.09;;;4.07;91.79
72336;BME280;65062;48.446;8.834;2022-11-15T05:24:54;97091.69;;;4.07;92.34
72336;BME280;65062;48.446;8.834;2022-11-15T05:27:55;97084.06;;;4.06;91.39
72336;BME280;65062;48.446;8.834;2022-11-15T05:31:09;97087.16;;;4.09;91.45
72336;BME280;65062;48.446;8.834;2022-11-15T05:34:10;97088.63;;;4.04;91.97
72336;BME280;65062;48.446;8.834;2022-11-15T05:37:10;97095.25;;;4.06;91.38
72336;BME280;65062;48.446;8.834;2022-11-15T05:40:11;97084.75;;;4.08;91.27
72336;BME280;65062;48.446;8.834;2022-11-15T05:43:11;97086.59;;;3.90;91.55
72336;BME280;65062;48.446;8.834;2022-11-15T05:46:13;97081.88;;;3.85;90.64
72336;BME280;65062;48.446;8.834;2022-11-15T05:49:17;97081.38;;;3.82;90.47
72336;BME280;65062;48.446;8.834;2022-11-15T05:52:22;97080.31;;;3.67;90.73
72336;BME280;65062;48.446;8.834;2022-11-15T05:55:24;97076.75;;;3.68;91.45
72336;BME280;65062;48.446;8.834;2022-11-15T05:58:25;97072.00;;;3.55;91.28
72336;BME280;65062;48.446;8.834;2022-11-15T06:01:26;97073.31;;;3.59;91.77
72336;BME280;65062;48.446;8.834;2022-11-15T06:04:27;97072.84;;;3.64;92.22
72336;BME280;65062;48.446;8.834;2022-11-15T06:07:29;97076.25;;;3.64;92.13
72336;BME280;65062;48.446;8.834;2022-11-15T06:10:29;97081.59;;;3.63;92.59
72336;BME280;65062;48.446;8.834;2022-11-15T06:13:30;97084.34;;;3.61;92.85
72336;BME280;65062;48.446;8.834;2022-11-15T06:16:30;97081.78;;;3.69;92.29
72336;BME280;65062;48.446;8.834;2022-11-15T06:19:30;97085.19;;;3.70;92.44
72336;BME280;65062;48.446;8.834;2022-11-15T06:22:33;97096.53;;;3.77;91.88
72336;BME280;65062;48.446;8.834;2022-11-15T06:25:33;97095.22;;;3.73;91.99
72336;BME280;65062;48.446;8.834;2022-11-15T06:28:33;97089.34;;;3.63;92.49
72336;BME280;65062;48.446;8.834;2022-11-15T06:31:34;97080.06;;;3.78;92.55
72336;BME280;65062;48.446;8.834;2022-11-15T06:34:34;97084.13;;;3.80;91.78
72336;BME280;65062;48.446;8.834;2022-11-15T06:37:35;97088.69;;;3.86;91.55
72336;BME280;65062;48.446;8.834;2022-11-15T06:40:37;97084.56;;;3.76;92.42
72336;BME280;65062;48.446;8.834;2022-11-15T06:43:38;97087.47;;;3.73;92.01
72336;BME280;65062;48.446;8.834;2022-11-15T06:46:39;97087.47;;;3.73;92.59
72336;BME280;65062;48.446;8.834;2022-11-15T06:49:39;97092.34;;;3.76;92.77
72336;BME280;65062;48.446;8.834;2022-11-15T06:52:40;97081.00;;;3.77;92.91
72336;BME280;65062;48.446;8.834;2022-11-15T06:55:40;97078.44;;;3.77;92.66
72336;BME280;65062;48.446;8.834;2022-11-15T06:58:40;97084.44;;;3.77;92.66
72336;BME280;65062;48.446;8.834;2022-11-15T07:01:41;97093.41;;;3.91;92.54
72336;BME280;65062;48.446;8.834;2022-11-15T07:04:41;97090.06;;;3.98;92.27
72336;BME280;65062;48.446;8.834;2022-11-15T07:07:41;97100.66;;;4.21;91.94
72336;BME280;65062;48.446;8.834;2022-11-15T07:10:42;97087.84;;;4.11;90.88
72336;BME280;65062;48.446;8.834;2022-11-15T07:13:42;97090.28;;;4.13;91.32
72336;BME280;65062;48.446;8.834;2022-11-15T07:16:42;97093.19;;;4.18;91.00
72336;BME280;65062;48.446;8.834;2022-11-15T07:19:43;97098.91;;;4.29;91.19
72336;BME280;65062;48.446;8.834;2022-11-15T07:22:43;97107.06;;;4.43;90.99
72336;BME280;65062;48.446;8.834;2022-11-15T07:25:47;97093.47;;;4.49;90.30
72336;BME280;65062;48.446;8.834;2022-11-15T07:28:47;97092.81;;;4.47;91.51
72336;BME280;65062;48.446;8.834;2022-11-15T07:31:49;97084.28;;;4.54;90.70
72336;BME280;65062;48.446;8.834;2022-11-15T07:34:49;97075.56;;;4.63;90.88
72336;BME280;65062;48.446;8.834;2022-11-15T07:37:58;97081.06;;;4.68;90.83
72336;BME280;65062;48.446;8.834;2022-11-15T07:41:02;97084.47;;;4.77;90.22
72336;BME280;65062;48.446;8.834;2022-11-15T07:44:03;97085.47;;;4.84;90.15
72336;BME280;65062;48.446;8.834;2022-11-15T07:47:03;97086.28;;;4.92;90.21
72336;BME280;65062;48.446;8.834;2022-11-15T07:50:04;97085.66;;;4.98;89.37
72336;BME280;65062;48.446;8.834;2022-11-15T07:53:04;97079.66;;;5.14;89.35
72336;BME280;65062;48.446;8.834;2022-11-15T07:56:08;97080.16;;;5.17;89.30
72336;BME280;65062;48.446;8.834;2022-11-15T07:59:08;97089.06;;;5.39;88.89
72336;BME280;65062;48.446;8.834;2022-11-15T08:02:09;97085.78;;;5.69;88.53
72336;BME280;65062;48.446;8.834;2022-11-15T08:05:09;97086.91;;;5.82;87.40
72336;BME280;65062;48.446;8.834;2022-11-15T08:08:10;97080.06;;;5.97;87.62
72336;BME280;65062;48.446;8.834;2022-11-15T08:11:11;97081.97;;;6.11;87.19
72336;BME280;65062;48.446;8.834;2022-11-15T08:14:11;97080.97;;;6.20;87.05
72336;BME280;65062;48.446;8.834;2022-11-15T08:17:12;97076.38;;;6.30;86.58
72336;BME280;65062;48.446;8.834;2022-11-15T08:20:12;97070.13;;;6.47;85.81
72336;BME280;65062;48.446;8.834;2022-11-15T08:23:12;97069.69;;;6.67;85.30
72336;BME280;65062;48.446;8.834;2022-11-15T08:26:13;97067.00;;;6.83;84.79
72336;BME280;65062;48.446;8.834;2022-11-15T08:29:14;97067.69;;;6.99;84.91
72336;BME280;65062;48.446;8.834;2022-11-15T08:32:14;97062.63;;;7.06;84.35
72336;BME280;65062;48.446;8.834;2022-11-15T08:35:15;97064.47;;;7.20;84.05
72336;BME280;65062;48.446;8.834;2022-11-15T08:38:15;97059.91;;;7.22;83.46
72336;BME280;65062;48.446;8.834;2022-11-15T08:41:23;97056.09;;;7.47;83.11
72336;BME280;65062;48.446;8.834;2022-11-15T08:44:24;97055.16;;;7.40;82.61
72336;BME280;65062;48.446;8.834;2022-11-15T08:47:25;97043.19;;;7.68;82.81
72336;BME280;65062;48.446;8.834;2022-11-15T08:50:26;97036.66;;;7.86;81.83
72336;BME280;65062;48.446;8.834;2022-11-15T08:53:26;97040.69;;;7.89;82.50
72336;BME280;65062;48.446;8.834;2022-11-15T08:56:27;97046.19;;;7.94;80.80
72336;BME280;65062;48.446;8.834;2022-11-15T08:59:27;97042.75;;;8.08;81.36
72336;BME280;65062;48.446;8.834;2022-11-15T09:02:28;97041.31;;;8.20;81.84
72336;BME280;65062;48.446;8.834;2022-11-15T09:05:28;97039.38;;;8.22;81.41
72336;BME280;65062;48.446;8.834;2022-11-15T09:08:31;97032.50;;;8.35;81.02
72336;BME280;65062;48.446;8.834;2022-11-15T09:11:32;97026.97;;;8.60;80.78
72336;BME280;65062;48.446;8.834;2022-11-15T09:14:32;97033.66;;;8.83;79.68
72336;BME280;65062;48.446;8.834;2022-11-15T09:17:33;97029.22;;;9.05;79.20
72336;BME280;65062;48.446;8.834;2022-11-15T09:20:33;97027.44;;;9.05;78.02
72336;BME280;65062;48.446;8.834;2022-11-15T09:23:34;97024.75;;;9.20;78.50
72336;BME280;65062;48.446;8.834;2022-11-15T09:26:34;97024.13;;;9.39;78.30
72336;BME280;65062;48.446;8.834;2022-11-15T09:29:34;97020.00;;;9.51;77.63
72336;BME280;65062;48.446;8.834;2022-11-15T09:32:35;97014.69;;;9.44;78.09
72336;BME280;65062;48.446;8.834;2022-11-15T09:35:36;97019.63;;;9.60;77.36
72336;BME280;65062;48.446;8.834;2022-11-15T09:38:36;97018.31;;;9.71;78.24
72336;BME280;65062;48.446;8.834;2022-11-15T09:41:56;97012.59;;;9.88;78.07
72336;BME280;65062;48.446;8.834;2022-11-15T09:45:10;97010.56;;;10.11;77.25
72336;BME280;65062;48.446;8.834;2022-11-15T09:51:39;97000.06;;;10.58;74.34
72336;BME280;65062;48.446;8.834;2022-11-15T09:54:49;96986.63;;;10.81;74.43
72336;BME280;65062;48.446;8.834;2022-11-15T09:58:00;96984.22;;;10.86;73.17
72336;BME280;65062;48.446;8.834;2022-11-15T10:01:08;96987.25;;;11.09;73.89
72336;BME280;65062;48.446;8.834;2022-11-15T10:04:13;96986.03;;;10.99;74.16
72336;BME280;65062;48.446;8.834;2022-11-15T10:07:25;96987.47;;;11.01;73.48
72336;BME280;65062;48.446;8.834;2022-11-15T10:13:36;96983.81;;;11.02;73.62
72336;BME280;65062;48.446;8.834;2022-11-15T10:22:50;96971.72;;;10.82;74.03
72336;BME280;65062;48.446;8.834;2022-11-15T10:25:57;96968.28;;;10.68;74.12
72336;BME280;65062;48.446;8.834;2022-11-15T10:28:57;96967.06;;;10.64;75.63
72336;BME280;65062;48.446;8.834;2022-11-15T10:31:58;96968.88;;;10.57;75.63
72336;BME280;65062;48.446;8.834;2022-11-15T10:34:58;96967.28;;;10.69;76.18
72336;BME280;65062;48.446;8.834;2022-11-15T10:38:09;96969.22;;;10.47;74.87
72336;BME280;65062;48.446;8.834;2022-11-15T10:41:11;96962.78;;;10.43;76.00
72336;BME280;65062;48.446;8.834;2022-11-15T10:44:30;96958.19;;;10.58;76.10
72336;BME280;65062;48.446;8.834;2022-11-15T10:47:31;96959.59;;;10.61;76.45
72336;BME280;65062;48.446;8.834;2022-11-15T10:50:32;96956.19;;;10.67;75.10
72336;BME280;65062;48.446;8.834;2022-11-15T10:53:44;96951.19;;;10.79;76.47
72336;BME280;65062;48.446;8.834;2022-11-15T10:56:52;96948.78;;;10.71;74.63
72336;BME280;65062;48.446;8.834;2022-11-15T10:59:56;96947.34;;;10.81;75.09
72336;BME280;65062;48.446;8.834;2022-11-15T11:06:23;96934.88;;;11.29;74.47
72336;BME280;65062;48.446;8.834;2022-11-15T11:09:37;96936.06;;;11.59;72.07
72336;BME280;65062;48.446;8.834;2022-11-15T11:12:37;96926.16;;;11.61;72.43
72336;BME280;65062;48.446;8.834;2022-11-15T11:15:38;96920.69;;;11.82;73.65
72336;BME280;65062;48.446;8.834;2022-11-15T11:22:04;96902.78;;;12.16;71.98
72336;BME280;65062;48.446;8.834;2022-11-15T11:32:07;96896.38;;;12.06;70.17
72336;BME280;65062;48.446;8.834;2022-11-15T11:41:52;96890.34;;;12.05;71.54
72336;BME280;65062;48.446;8.834;2022-11-15T11:51:41;96860.59;;;12.18;72.60
72336;BME280;65062;48.446;8.834;2022-11-15T11:55:36;96866.97;;;12.35;71.81
72336;BME280;65062;48.446;8.834;2022-11-15T11:58:14;96857.31;;;12.29;71.98
72336;BME280;65062;48.446;8.834;2022-11-15T12:01:29;96859.03;;;12.41;72.03
72336;BME280;65062;48.446;8.834;2022-11-15T12:04:38;96864.19;;;12.54;72.52
72336;BME280;65062;48.446;8.834;2022-11-15T12:07:41;96859.19;;;12.78;70.39
72336;BME280;65062;48.446;8.834;2022-11-15T12:10:47;96853.97;;;12.71;71.79
72336;BME280;65062;48.446;8.834;2022-11-15T12:13:50;96851.53;;;12.76;70.46
72336;BME280;65062;48.446;8.834;2022-11-15T12:16:53;96859.00;;;13.04;69.87
72336;BME280;65062;48.446;8.834;2022-11-15T12:20:23;96851.13;;;12.97;70.68
72336;BME280;65062;48.446;8.834;2022-11-15T12:23:28;96843.84;;;13.24;69.90
72336;BME280;65062;48.446;8.834;2022-11-15T12:26:37;96834.59;;;13.39;69.50
72336;BME280;65062;48.446;8.834;2022-11-15T12:29:43;96832.75;;;13.40;69.26
72336;BME280;65062;48.446;8.834;2022-11-15T12:32:54;96834.31;;;13.29;68.92
72336;BME280;65062;48.446;8.834;2022-11-15T12:36:00;96829.41;;;13.15;69.38
72336;BME280;65062;48.446;8.834;2022-11-15T12:54:58;96808.44;;;12.84;71.98
72336;BME280;65062;48.446;8.834;2022-11-15T12:58:19;96802.84;;;12.73;72.20
72336;BME280;65062;48.446;8.834;2022-11-15T13:04:32;96797.47;;;12.68;73.26
72336;BME280;65062;48.446;8.834;2022-11-15T13:10:36;96787.84;;;12.38;74.13
72336;BME280;65062;48.446;8.834;2022-11-15T13:13:44;96785.94;;;12.45;74.83
72336;BME280;65062;48.446;8.834;2022-11-15T13:16:44;96774.53;;;12.57;74.83
72336;BME280;65062;48.446;8.834;2022-11-15T13:19:46;96758.69;;;12.71;76.11
72336;BME280;65062;48.446;8.834;2022-11-15T13:22:53;96763.16;;;12.63;76.23
72336;BME280;65062;48.446;8.834;2022-11-15T13:26:14;96750.38;;;12.49;77.26
72336;BME280;65062;48.446;8.834;2022-11-15T13:29:20;96752.94;;;12.31;78.67
72336;BME280;65062;48.446;8.834;2022-11-15T13:32:21;96743.75;;;12.22;79.17
72336;BME280;65062;48.446;8.834;2022-11-15T13:35:25;96746.38;;;12.22;78.68
72336;BME280;65062;48.446;8.834;2022-11-15T13:38:32;96743.34;;;12.25;77.82
72336;BME280;65062;48.446;8.834;2022-11-15T13:41:35;96730.53;;;12.35;78.02
72336;BME280;65062;48.446;8.834;2022-11-15T13:44:36;96717.19;;;12.36;77.32
72336;BME280;65062;48.446;8.834;2022-11-15T13:47:36;96717.28;;;12.48;78.07
72336;BME280;65062;48.446;8.834;2022-11-15T13:50:38;96721.16;;;12.45;78.20
72336;BME280;65062;48.446;8.834;2022-11-15T13:53:42;96708.28;;;12.37;77.81
72336;BME280;65062;48.446;8.834;2022-11-15T13:56:53;96710.00;;;12.25;79.60
72336;BME280;65062;48.446;8.834;2022-11-15T14:00:00;96702.47;;;12.11;79.94
72336;BME280;65062;48.446;8.834;2022-11-15T14:03:07;96694.28;;;12.01;81.06
72336;BME280;65062;48.446;8.834;2022-11-15T14:06:09;96695.88;;;12.02;80.76
72336;BME280;65062;48.446;8.834;2022-11-15T14:09:28;96685.25;;;11.97;81.18
72336;BME280;65062;48.446;8.834;2022-11-15T14:12:32;96686.13;;;11.84;80.78
72336;BME280;65062;48.446;8.834;2022-11-15T14:15:36;96680.97;;;11.71;81.87
72336;BME280;65062;48.446;8.834;2022-11-15T14:18:48;96670.09;;;11.68;81.16
72336;BME280;65062;48.446;8.834;2022-11-15T14:22:12;96656.00;;;11.69;82.49
72336;BME280;65062;48.446;8.834;2022-11-15T14:25:21;96657.13;;;11.79;81.63
72336;BME280;65062;48.446;8.834;2022-11-15T14:31:22;96648.63;;;11.53;82.38
72336;BME280;65062;48.446;8.834;2022-11-15T14:34:23;96655.13;;;11.44;83.30
72336;BME280;65062;48.446;8.834;2022-11-15T14:37:31;96658.31;;;11.46;83.97
72336;BME280;65062;48.446;8.834;2022-11-15T14:40:34;96661.97;;;11.45;84.84
72336;BME280;65062;48.446;8.834;2022-11-15T14:43:34;96660.72;;;11.47;84.36
72336;BME280;65062;48.446;8.834;2022-11-15T14:46:35;96665.72;;;11.55;84.22
72336;BME280;65062;48.446;8.834;2022-11-15T14:49:35;96663.25;;;11.67;82.35
72336;BME280;65062;48.446;8.834;2022-11-15T14:52:36;96660.44;;;11.68;82.90
72336;BME280;65062;48.446;8.834;2022-11-15T14:55:36;96657.28;;;11.84;84.10
72336;BME280;65062;48.446;8.834;2022-11-15T14:58:37;96657.81;;;11.93;83.10
72336;BME280;65062;48.446;8.834;2022-11-15T15:01:37;96653.28;;;11.82;82.84
72336;BME280;65062;48.446;8.834;2022-11-15T15:04:37;96648.13;;;11.69;83.58
72336;BME280;65062;48.446;8.834;2022-11-15T15:07:38;96642.97;;;11.56;83.85
72336;BME280;65062;48.446;8.834;2022-11-15T15:10:41;96632.31;;;11.44;84.06
72336;BME280;65062;48.446;8.834;2022-11-15T15:13:42;96630.06;;;11.23;85.34
72336;BME280;65062;48.446;8.834;2022-11-15T15:16:42;96631.53;;;11.13;85.52
72336;BME280;65062;48.446;8.834;2022-11-15T15:19:43;96620.31;;;10.99;87.02
72336;BME280;65062;48.446;8.834;2022-11-15T15:22:44;96623.09;;;11.04;87.28
72336;BME280;65062;48.446;8.834;2022-11-15T15:25:46;96611.91;;;10.84;88.22
72336;BME280;65062;48.446;8.834;2022-11-15T15:28:47;96606.94;;;10.70;88.26
72336;BME280;65062;48.446;8.834;2022-11-15T15:31:51;96604.56;;;10.62;88.81
72336;BME280;65062;48.446;8.834;2022-11-15T15:34:52;96600.56;;;10.52;88.45
72336;BME280;65062;48.446;8.834;2022-11-15T15:37:52;96597.75;;;10.47;89.51
72336;BME280;65062;48.446;8.834;2022-11-15T15:40:53;96599.56;;;10.53;89.24
72336;BME280;65062;48.446;8.834;2022-11-15T15:43:53;96589.91;;;10.54;87.56
72336;BME280;65062;48.446;8.834;2022-11-15T15:46:53;96583.13;;;10.33;87.70
72336;BME280;65062;48.446;8.834;2022-11-15T15:49:54;96574.50;;;10.20;88.86
72336;BME280;65062;48.446;8.834;2022-11-15T15:52:56;96572.91;;;10.12;89.73
72336;BME280;65062;48.446;8.834;2022-11-15T15:55:57;96569.31;;;10.07;89.88
72336;BME280;65062;48.446;8.834;2022-11-15T15:58:58;96567.06;;;10.04;89.75
72336;BME280;65062;48.446;8.834;2022-11-15T16:01:58;96564.06;;;10.00;90.14
72336;BME280;65062;48.446;8.834;2022-11-15T16:04:58;96558.81;;;10.00;89.97
72336;BME280;65062;48.446;8.834;2022-11-15T16:07:59;96566.69;;;9.94;90.46
72336;BME280;65062;48.446;8.834;2022-11-15T16:10:59;96564.25;;;9.99;90.22
72336;BME280;65062;48.446;8.834;2022-11-15T16:14:00;96566.28;;;9.97;89.75
72336;BME280;65062;48.446;8.834;2022-11-15T16:17:00;96560.84;;;9.85;89.88
72336;BME280;65062;48.446;8.834;2022-11-15T16:20:01;96558.25;;;9.85;90.42
72336;BME280;65062;48.446;8.834;2022-11-15T16:23:07;96550.44;;;9.79;90.48
72336;BME280;65062;48.446;8.834;2022-11-15T16:26:19;96549.00;;;9.83;89.69
72336;BME280;65062;48.446;8.834;2022-11-15T16:29:20;96549.03;;;9.70;89.59
72336;BME280;65062;48.446;8.834;2022-11-15T16:32:20;96548.84;;;9.78;89.31
72336;BME280;65062;48.446;8.834;2022-11-15T16:35:21;96544.63;;;9.57;90.24
72336;BME280;65062;48.446;8.834;2022-11-15T16:38:21;96539.00;;;9.54;90.00
72336;BME280;65062;48.446;8.834;2022-11-15T16:41:22;96540.81;;;9.47;90.46
72336;BME280;65062;48.446;8.834;2022-11-15T16:44:22;96534.16;;;9.44;90.45
72336;BME280;65062;48.446;8.834;2022-11-15T16:47:23;96522.94;;;9.44;90.74
72336;BME280;65062;48.446;8.834;2022-11-15T16:50:27;96521.31;;;9.69;90.82
72336;BME280;65062;48.446;8.834;2022-11-15T16:53:27;96519.28;;;9.58;90.13
72336;BME280;65062;48.446;8.834;2022-11-15T16:56:29;96511.25;;;9.59;90.50
72336;BME280;65062;48.446;8.834;2022-11-15T16:59:30;96512.47;;;9.50;91.07
72336;BME280;65062;48.446;8.834;2022-11-15T17:02:32;96511.47;;;9.45;91.25
72336;BME280;65062;48.446;8.834;2022-11-15T17:05:33;96512.88;;;9.47;91.05
72336;BME280;65062;48.446;8.834;2022-11-15T17:08:33;96511.06;;;9.41;91.04
72336;BME280;65062;48.446;8.834;2022-11-15T17:11:34;96506.84;;;9.40;91.63
72336;BME280;65062;48.446;8.834;2022-11-15T17:14:34;96506.03;;;9.40;91.80
72336;BME280;65062;48.446;8.834;2022-11-15T17:17:34;96510.88;;;9.43;91.75
72336;BME280;65062;48.446;8.834;2022-11-15T17:20:35;96501.63;;;9.40;91.22
72336;BME280;65062;48.446;8.834;2022-11-15T17:23:35;96504.47;;;9.45;91.05
72336;BME280;65062;48.446;8.834;2022-11-15T17:26:36;96507.66;;;9.34;91.04
72336;BME280;65062;48.446;8.834;2022-11-15T17:29:37;96497.81;;;9.30;90.84
72336;BME280;65062;48.446;8.834;2022-11-15T17:32:38;96495.41;;;9.28;91.53
72336;BME280;65062;48.446;8.834;2022-11-15T17:35:38;96490.59;;;9.25;91.50
72336;BME280;65062;48.446;8.834;2022-11-15T17:38:42;96494.44;;;9.29;91.39
72336;BME280;65062;48.446;8.834;2022-11-15T17:41:42;96492.41;;;9.18;91.30
72336;BME280;65062;48.446;8.834;2022-11-15T17:44:42;96489.38;;;9.21;91.54
72336;BME280;65062;48.446;8.834;2022-11-15T17:47:43;96476.34;;;9.28;91.56
72336;BME280;65062;48.446;8.834;2022-11-15T17:50:43;96488.38;;;9.29;91.21
72336;BME280;65062;48.446;8.834;2022-11-15T17:53:46;96476.56;;;9.13;90.97
72336;BME280;65062;48.446;8.834;2022-11-15T17:56:48;96483.19;;;9.03;91.54